createdAt,value
2022-11-20T00:00:01.311Z,33.8
2022-11-20T00:01:05.391Z,33.8
2022-11-20T00:02:01.278Z,33.8
2022-11-20T00:03:01.212Z,33.8
2022-11-20T00:04:01.284Z,33.6
2022-11-20T00:05:00.954Z,33.6
2022-11-20T00:06:01.834Z,33.6
2022-11-20T00:07:01.252Z,33.6
2022-11-20T00:08:01.495Z,33.6
2022-11-20T00:09:01.497Z,33.4
2022-11-20T00:10:01.262Z,33.6
2022-11-20T00:11:04.218Z,33.6
2022-11-20T00:12:01.224Z,33.4
2022-11-20T00:13:00.930Z,33.4
2022-11-20T00:14:01.605Z,33.3
2022-11-20T00:15:01.266Z,33.3
2022-11-20T00:16:03.399Z,33.1
2022-11-20T00:17:00.943Z,33.1
2022-11-20T00:18:00.915Z,33.1
2022-11-20T00:19:01.974Z,33.4
2022-11-20T00:20:00.928Z,33.3
2022-11-20T00:21:02.844Z,33.1
2022-11-20T00:22:01.220Z,33.1
2022-11-20T00:23:00.904Z,33.1
2022-11-20T00:24:00.964Z,33.3
2022-11-20T00:25:01.230Z,33.3
2022-11-20T00:26:03.724Z,33.1
2022-11-20T00:27:00.918Z,33.1
2022-11-20T00:28:01.237Z,33.1
2022-11-20T00:29:01.968Z,33.1
2022-11-20T00:30:01.448Z,33.1
2022-11-20T00:31:02.807Z,33.1
2022-11-20T00:32:00.920Z,33.1
2022-11-20T00:33:00.933Z,33.1
2022-11-20T00:34:00.931Z,33.1
2022-11-20T00:35:01.225Z,33.1
2022-11-20T00:36:02.208Z,33.3
2022-11-20T00:37:01.215Z,33.3
2022-11-20T00:38:00.932Z,33.1
2022-11-20T00:39:01.324Z,33.1
2022-11-20T00:40:00.918Z,33.1
2022-11-20T00:41:04.218Z,32.9
2022-11-20T00:42:00.949Z,32.7
2022-11-20T00:43:01.222Z,32.7
2022-11-20T00:44:01.339Z,32.7
2022-11-20T00:45:01.228Z,32.7
2022-11-20T00:46:03.672Z,32.7
2022-11-20T00:47:01.231Z,32.7
2022-11-20T00:48:01.204Z,32.7
2022-11-20T00:49:00.918Z,32.7
2022-11-20T00:50:00.927Z,32.5
2022-11-20T00:51:01.610Z,32.5
2022-11-20T00:52:01.051Z,32.5
2022-11-20T00:53:00.930Z,32.5
2022-11-20T00:54:01.238Z,32.7
2022-11-20T00:55:01.225Z,32.5
2022-11-20T00:56:03.973Z,32.5
2022-11-20T00:57:00.912Z,32.5
2022-11-20T00:58:04.403Z,32.5
2022-11-20T00:59:01.499Z,32.4
2022-11-20T01:00:01.282Z,32.4
2022-11-20T01:01:01.567Z,32.4
2022-11-20T01:02:00.946Z,32.4
2022-11-20T01:03:01.197Z,32.4
2022-11-20T01:04:00.947Z,32.2
2022-11-20T01:05:00.925Z,32.2
2022-11-20T01:06:01.877Z,32.4
2022-11-20T01:07:01.296Z,32.5
2022-11-20T01:08:00.920Z,32.5
2022-11-20T01:09:05.208Z,32.4
2022-11-20T01:10:00.949Z,32.4
2022-11-20T01:11:02.249Z,32.4
2022-11-20T01:12:01.252Z,32.4
2022-11-20T01:13:00.918Z,32.5
2022-11-20T01:14:03.595Z,32.5
2022-11-20T01:15:00.963Z,32.4
2022-11-20T01:16:03.738Z,32.4
2022-11-20T01:17:01.209Z,32.7
2022-11-20T01:18:01.234Z,32.4
2022-11-20T01:19:04.459Z,32.2
2022-11-20T01:20:01.211Z,32.2
2022-11-20T01:21:02.770Z,32.2
2022-11-20T01:22:00.946Z,32.2
2022-11-20T01:23:00.928Z,32.0
2022-11-20T01:24:01.710Z,32.2
2022-11-20T01:25:01.103Z,32.2
2022-11-20T01:26:02.497Z,32.4
2022-11-20T01:27:01.238Z,32.0
2022-11-20T01:28:00.951Z,31.8
2022-11-20T01:29:02.867Z,31.8
2022-11-20T01:30:01.616Z,32.2
2022-11-20T01:31:01.256Z,32.0
2022-11-20T01:32:01.232Z,31.8
2022-11-20T01:33:01.239Z,31.5
2022-11-20T01:34:04.239Z,31.5
2022-11-20T01:35:01.230Z,31.5
2022-11-20T01:36:07.534Z,31.6
2022-11-20T01:37:00.928Z,31.6
2022-11-20T01:38:00.926Z,31.5
2022-11-20T01:39:05.531Z,31.5
2022-11-20T01:40:01.232Z,31.5
2022-11-20T01:41:01.277Z,31.1
2022-11-20T01:42:04.525Z,31.1
2022-11-20T01:43:13.618Z,30.9
2022-11-20T01:44:02.732Z,31.1
2022-11-20T01:45:01.563Z,30.9
2022-11-20T01:46:05.077Z,30.9
2022-11-20T01:47:04.958Z,30.9
2022-11-20T01:48:00.974Z,30.9
2022-11-20T01:49:04.275Z,30.9
2022-11-20T01:50:06.469Z,31.5
2022-11-20T01:51:02.926Z,31.5
2022-11-20T01:52:05.553Z,31.5
2022-11-20T01:53:05.302Z,31.3
2022-11-20T01:54:05.963Z,31.3
2022-11-20T01:55:07.036Z,31.3
2022-11-20T01:56:03.026Z,31.5
2022-11-20T01:57:01.990Z,31.3
2022-11-20T01:58:03.105Z,31.3
2022-11-20T01:59:04.127Z,31.3
2022-11-20T02:00:05.786Z,31.5
2022-11-20T02:01:01.429Z,31.6
2022-11-20T02:02:00.945Z,31.5
2022-11-20T02:03:06.722Z,31.5
2022-11-20T02:04:01.831Z,31.5
2022-11-20T02:05:09.594Z,31.3
2022-11-20T02:06:08.944Z,31.3
2022-11-20T02:07:04.243Z,31.5
2022-11-20T02:08:04.629Z,31.5
2022-11-20T02:09:01.461Z,31.3
2022-11-20T02:10:01.713Z,31.3
2022-11-20T02:11:01.227Z,31.3
2022-11-20T02:12:01.731Z,31.6
2022-11-20T02:13:01.507Z,31.5
2022-11-20T02:14:01.213Z,31.5
2022-11-20T02:15:01.550Z,31.5
2022-11-20T02:16:02.122Z,31.5
2022-11-20T02:17:01.311Z,31.3
2022-11-20T02:18:01.667Z,31.3
2022-11-20T02:19:04.195Z,31.1
2022-11-20T02:20:01.438Z,31.1
2022-11-20T02:21:07.409Z,30.9
2022-11-20T02:22:08.382Z,30.7
2022-11-20T02:23:08.816Z,30.9
2022-11-20T02:24:05.991Z,30.7
2022-11-20T02:25:04.035Z,30.6
2022-11-20T02:26:04.487Z,30.7
2022-11-20T02:27:04.917Z,30.7
2022-11-20T02:28:02.193Z,30.9
2022-11-20T02:29:02.704Z,30.7
2022-11-20T02:30:04.058Z,30.7
2022-11-20T02:31:01.447Z,30.9
2022-11-20T02:32:02.214Z,31.1
2022-11-20T02:33:01.224Z,31.1
2022-11-20T02:34:00.944Z,31.1
2022-11-20T02:35:08.158Z,31.1
2022-11-20T02:36:01.515Z,31.1
2022-11-20T02:37:01.622Z,31.3
2022-11-20T02:38:02.876Z,31.5
2022-11-20T02:39:01.676Z,31.5
2022-11-20T02:40:01.365Z,31.3
2022-11-20T02:41:01.236Z,31.5
2022-11-20T02:42:02.246Z,31.5
2022-11-20T02:43:00.956Z,31.6
2022-11-20T02:44:01.439Z,31.5
2022-11-20T02:45:00.922Z,31.3
2022-11-20T02:46:00.939Z,31.1
2022-11-20T02:47:01.428Z,31.1
2022-11-20T02:48:00.987Z,30.9
2022-11-20T02:49:02.929Z,31.5
2022-11-20T02:50:01.489Z,31.5
2022-11-20T02:51:01.072Z,31.6
2022-11-20T02:52:01.495Z,31.5
2022-11-20T02:53:01.136Z,31.5
2022-11-20T02:54:01.257Z,31.5
2022-11-20T02:55:00.990Z,31.5
2022-11-20T02:56:01.297Z,31.3
2022-11-20T02:57:01.237Z,31.1
2022-11-20T02:58:00.923Z,31.1
2022-11-20T02:59:01.225Z,31.3
2022-11-20T03:00:00.984Z,31.1
2022-11-20T03:01:01.309Z,31.3
2022-11-20T03:02:01.235Z,31.3
2022-11-20T03:03:00.945Z,31.3
2022-11-20T03:04:01.689Z,31.3
2022-11-20T03:05:01.349Z,31.5
2022-11-20T03:06:01.224Z,31.3
2022-11-20T03:07:01.893Z,31.6
2022-11-20T03:08:01.226Z,31.6
2022-11-20T03:09:01.102Z,31.3
2022-11-20T03:10:01.049Z,31.3
2022-11-20T03:11:04.451Z,31.1
2022-11-20T03:12:01.242Z,31.1
2022-11-20T03:13:01.233Z,31.3
2022-11-20T03:14:02.133Z,30.9
2022-11-20T03:15:01.189Z,30.7
2022-11-20T03:16:05.272Z,31.1
2022-11-20T03:17:01.228Z,31.1
2022-11-20T03:18:01.224Z,31.1
2022-11-20T03:19:01.278Z,31.3
2022-11-20T03:20:01.278Z,31.3
2022-11-20T03:21:01.339Z,31.3
2022-11-20T03:22:01.081Z,30.9
2022-11-20T03:23:01.998Z,30.9
2022-11-20T03:24:01.312Z,30.9
2022-11-20T03:25:00.921Z,30.9
2022-11-20T03:26:10.963Z,30.7
2022-11-20T03:27:00.923Z,30.7
2022-11-20T03:28:00.936Z,30.9
2022-11-20T03:29:03.037Z,31.1
2022-11-20T03:30:01.059Z,30.7
2022-11-20T03:31:05.327Z,30.7
2022-11-20T03:32:00.942Z,30.6
2022-11-20T03:33:00.948Z,30.6
2022-11-20T03:34:02.398Z,30.7
2022-11-20T03:35:01.235Z,30.7
2022-11-20T03:36:03.266Z,30.7
2022-11-20T03:37:01.093Z,30.7
2022-11-20T03:38:00.925Z,30.7
2022-11-20T03:39:01.600Z,30.6
2022-11-20T03:40:01.241Z,30.7
2022-11-20T03:41:02.743Z,30.9
2022-11-20T03:42:01.222Z,30.7
2022-11-20T03:43:00.907Z,30.6
2022-11-20T03:44:03.309Z,30.7
2022-11-20T03:45:01.214Z,30.7
2022-11-20T03:46:01.732Z,30.6
2022-11-20T03:47:00.939Z,30.6
2022-11-20T03:48:01.109Z,30.4
2022-11-20T03:49:02.029Z,30.4
2022-11-20T03:50:00.935Z,30.4
2022-11-20T03:51:10.216Z,30.2
2022-11-20T03:52:01.241Z,30.4
2022-11-20T03:53:01.215Z,30.4
2022-11-20T03:54:03.845Z,30.2
2022-11-20T03:55:00.978Z,30.4
2022-11-20T03:56:01.321Z,30.2
2022-11-20T03:57:00.935Z,30.0
2022-11-20T03:58:00.935Z,30.2
2022-11-20T03:59:01.743Z,30.2
2022-11-20T04:00:01.310Z,30.0
2022-11-20T04:01:06.805Z,30.0
2022-11-20T04:02:01.308Z,29.8
2022-11-20T04:03:02.506Z,29.8
2022-11-20T04:04:01.188Z,29.8
2022-11-20T04:05:00.956Z,29.7
2022-11-20T04:06:03.707Z,29.7
2022-11-20T04:07:00.995Z,29.7
2022-11-20T04:08:00.937Z,29.7
2022-11-20T04:09:01.246Z,29.8
2022-11-20T04:10:01.156Z,30.0
2022-11-20T04:11:10.032Z,29.8
2022-11-20T04:12:01.238Z,30.2
2022-11-20T04:13:01.213Z,30.2
2022-11-20T04:14:03.084Z,30.0
2022-11-20T04:15:01.353Z,29.8
2022-11-20T04:16:00.941Z,29.8
2022-11-20T04:17:00.922Z,29.7
2022-11-20T04:18:00.929Z,29.7
2022-11-20T04:19:04.253Z,29.8
2022-11-20T04:20:01.340Z,30.0
2022-11-20T04:21:01.533Z,29.8
2022-11-20T04:22:01.014Z,30.0
2022-11-20T04:23:00.938Z,29.8
2022-11-20T04:24:01.649Z,29.7
2022-11-20T04:25:01.253Z,29.7
2022-11-20T04:26:02.348Z,29.7
2022-11-20T04:27:01.228Z,29.7
2022-11-20T04:28:01.213Z,29.5
2022-11-20T04:29:01.565Z,29.5
2022-11-20T04:30:00.924Z,29.5
2022-11-20T04:31:04.426Z,29.5
2022-11-20T04:32:01.309Z,29.5
2022-11-20T04:33:00.936Z,29.5
2022-11-20T04:34:03.313Z,29.5
2022-11-20T04:35:01.211Z,29.5
2022-11-20T04:36:02.900Z,29.3
2022-11-20T04:37:01.380Z,29.1
2022-11-20T04:38:01.440Z,28.9
2022-11-20T04:39:03.702Z,28.9
2022-11-20T04:40:00.917Z,28.8
2022-11-20T04:41:03.195Z,28.6
2022-11-20T04:42:00.927Z,28.6
2022-11-20T04:43:01.130Z,28.6
2022-11-20T04:44:03.731Z,28.6
2022-11-20T04:45:01.257Z,28.6
2022-11-20T04:46:01.942Z,28.6
2022-11-20T04:47:00.937Z,28.4
2022-11-20T04:48:00.922Z,28.4
2022-11-20T04:49:01.383Z,28.4
2022-11-20T04:50:01.317Z,28.2
2022-11-20T04:51:03.529Z,28.2
2022-11-20T04:52:00.942Z,28.2
2022-11-20T04:53:00.934Z,28.4
2022-11-20T04:54:01.894Z,28.4
2022-11-20T04:55:00.945Z,28.2
2022-11-20T04:56:02.155Z,28.4
2022-11-20T04:57:01.232Z,28.2
2022-11-20T04:58:00.913Z,28.2
2022-11-20T04:59:01.721Z,28.0
2022-11-20T05:00:01.265Z,28.0
2022-11-20T05:01:01.927Z,28.0
2022-11-20T05:02:00.943Z,28.0
2022-11-20T05:03:00.972Z,28.0
2022-11-20T05:04:00.930Z,28.0
2022-11-20T05:05:01.235Z,28.0
2022-11-20T05:06:02.119Z,28.0
2022-11-20T05:07:01.296Z,28.0
2022-11-20T05:08:01.619Z,28.0
2022-11-20T05:09:00.927Z,27.9
2022-11-20T05:10:00.960Z,27.7
2022-11-20T05:11:02.334Z,27.7
2022-11-20T05:12:00.934Z,27.5
2022-11-20T05:13:01.226Z,27.7
2022-11-20T05:14:00.915Z,27.9
2022-11-20T05:15:01.234Z,27.9
2022-11-20T05:16:02.654Z,27.9
2022-11-20T05:17:00.973Z,27.9
2022-11-20T05:18:01.251Z,27.9
2022-11-20T05:19:01.240Z,27.9
2022-11-20T05:20:01.212Z,27.9
2022-11-20T05:21:01.404Z,27.7
2022-11-20T05:22:00.920Z,27.9
2022-11-20T05:23:01.207Z,27.9
2022-11-20T05:24:00.972Z,27.9
2022-11-20T05:25:01.273Z,27.9
2022-11-20T05:26:01.918Z,27.5
2022-11-20T05:27:01.227Z,27.3
2022-11-20T05:28:01.269Z,27.3
2022-11-20T05:29:01.216Z,27.5
2022-11-20T05:30:01.284Z,27.5
2022-11-20T05:31:05.930Z,27.3
2022-11-20T05:32:00.942Z,27.3
2022-11-20T05:33:00.948Z,27.1
2022-11-20T05:34:01.211Z,27.3
2022-11-20T05:35:01.313Z,27.3
2022-11-20T05:36:02.108Z,27.1
2022-11-20T05:37:00.969Z,27.1
2022-11-20T05:38:01.084Z,27.0
2022-11-20T05:39:01.709Z,27.0
2022-11-20T05:40:00.952Z,26.8
2022-11-20T05:41:04.902Z,26.8
2022-11-20T05:42:00.924Z,27.0
2022-11-20T05:43:01.950Z,27.3
2022-11-20T05:44:01.238Z,27.3
2022-11-20T05:45:03.071Z,27.1
2022-11-20T05:46:01.299Z,27.1
2022-11-20T05:47:00.927Z,27.1
2022-11-20T05:48:01.745Z,27.3
2022-11-20T05:49:01.596Z,27.5
2022-11-20T05:50:01.368Z,27.5
2022-11-20T05:51:03.580Z,27.5
2022-11-20T05:52:00.966Z,27.7
2022-11-20T05:53:01.437Z,27.5
2022-11-20T05:54:01.226Z,27.3
2022-11-20T05:55:00.936Z,27.5
2022-11-20T05:56:02.712Z,27.3
2022-11-20T05:57:01.254Z,27.3
2022-11-20T05:58:00.917Z,27.5
2022-11-20T05:59:01.240Z,27.5
2022-11-20T06:00:01.487Z,27.3
2022-11-20T06:01:05.283Z,27.5
2022-11-20T06:02:00.913Z,27.3
2022-11-20T06:03:01.365Z,27.3
2022-11-20T06:04:00.914Z,27.5
2022-11-20T06:05:01.319Z,27.5
2022-11-20T06:06:02.109Z,27.5
2022-11-20T06:07:01.308Z,27.5
2022-11-20T06:08:01.352Z,27.5
2022-11-20T06:09:00.951Z,27.5
2022-11-20T06:10:00.930Z,27.5
2022-11-20T06:11:03.938Z,27.5
2022-11-20T06:12:01.291Z,27.3
2022-11-20T06:13:01.240Z,27.3
2022-11-20T06:14:01.230Z,27.5
2022-11-20T06:15:01.209Z,27.3
2022-11-20T06:16:01.479Z,27.1
2022-11-20T06:17:01.418Z,27.0
2022-11-20T06:18:01.260Z,26.8
2022-11-20T06:19:01.259Z,26.8
2022-11-20T06:20:01.418Z,26.6
2022-11-20T06:21:02.849Z,26.8
2022-11-20T06:22:01.182Z,27.0
2022-11-20T06:23:00.937Z,26.8
2022-11-20T06:24:00.930Z,26.6
2022-11-20T06:25:00.942Z,26.4
2022-11-20T06:26:03.447Z,26.4
2022-11-20T06:27:01.223Z,27.1
2022-11-20T06:28:00.937Z,27.1
2022-11-20T06:29:01.027Z,26.8
2022-11-20T06:30:01.231Z,26.8
2022-11-20T06:31:01.607Z,27.0
2022-11-20T06:32:01.277Z,26.8
2022-11-20T06:33:02.027Z,26.8
2022-11-20T06:34:01.594Z,27.0
2022-11-20T06:35:00.938Z,26.8
2022-11-20T06:36:05.856Z,27.1
2022-11-20T06:37:01.275Z,27.1
2022-11-20T06:38:00.926Z,27.1
2022-11-20T06:39:01.455Z,27.3
2022-11-20T06:40:00.931Z,27.1
2022-11-20T06:41:01.267Z,26.8
2022-11-20T06:42:01.605Z,26.6
2022-11-20T06:43:00.945Z,26.2
2022-11-20T06:44:01.270Z,26.4
2022-11-20T06:45:00.942Z,26.2
2022-11-20T06:46:00.973Z,26.4
2022-11-20T06:47:00.930Z,26.4
2022-11-20T06:48:00.911Z,26.4
2022-11-20T06:49:01.227Z,26.4
2022-11-20T06:50:01.335Z,26.6
2022-11-20T06:51:03.291Z,26.8
2022-11-20T06:52:01.237Z,26.8
2022-11-20T06:53:02.354Z,26.6
2022-11-20T06:54:01.210Z,26.8
2022-11-20T06:55:01.127Z,26.6
2022-11-20T06:56:01.246Z,26.4
2022-11-20T06:57:01.238Z,26.4
2022-11-20T06:58:00.933Z,26.2
2022-11-20T06:59:03.952Z,26.2
2022-11-20T07:00:00.955Z,26.2
2022-11-20T07:01:03.507Z,26.1
2022-11-20T07:02:01.270Z,26.1
2022-11-20T07:03:02.993Z,25.9
2022-11-20T07:04:01.255Z,25.9
2022-11-20T07:05:01.224Z,25.9
2022-11-20T07:06:02.445Z,25.9
2022-11-20T07:07:00.968Z,25.9
2022-11-20T07:08:01.942Z,25.9
2022-11-20T07:09:00.933Z,25.9
2022-11-20T07:10:00.949Z,25.7
2022-11-20T07:11:03.347Z,25.7
2022-11-20T07:12:01.214Z,25.7
2022-11-20T07:13:01.410Z,25.7
2022-11-20T07:14:01.277Z,25.7
2022-11-20T07:15:00.931Z,25.7
2022-11-20T07:16:02.853Z,25.7
2022-11-20T07:17:01.203Z,25.9
2022-11-20T07:18:01.579Z,25.7
2022-11-20T07:19:00.932Z,25.7
2022-11-20T07:20:01.220Z,25.7
2022-11-20T07:21:02.004Z,25.5
2022-11-20T07:22:00.924Z,25.7
2022-11-20T07:23:01.362Z,25.7
2022-11-20T07:24:00.925Z,25.7
2022-11-20T07:25:02.086Z,25.7
2022-11-20T07:26:03.988Z,25.9
2022-11-20T07:27:01.247Z,25.9
2022-11-20T07:28:01.590Z,25.9
2022-11-20T07:29:00.970Z,26.2
2022-11-20T07:30:01.052Z,26.4
2022-11-20T07:31:01.326Z,26.4
2022-11-20T07:32:01.080Z,26.4
2022-11-20T07:33:01.242Z,26.4
2022-11-20T07:34:01.070Z,26.4
2022-11-20T07:35:00.962Z,26.4
2022-11-20T07:36:01.565Z,26.4
2022-11-20T07:37:04.823Z,26.4
2022-11-20T07:38:01.211Z,26.8
2022-11-20T07:39:01.524Z,27.0
2022-11-20T07:40:00.949Z,27.0
2022-11-20T07:41:00.942Z,26.8
2022-11-20T07:42:00.911Z,26.8
2022-11-20T07:43:01.258Z,26.6
2022-11-20T07:44:01.402Z,26.8
2022-11-20T07:45:01.228Z,26.8
2022-11-20T07:46:01.237Z,27.0
2022-11-20T07:47:01.905Z,27.1
2022-11-20T07:48:00.949Z,27.5
2022-11-20T07:49:00.924Z,27.5
2022-11-20T07:50:01.211Z,27.5
2022-11-20T07:51:01.044Z,27.3
2022-11-20T07:52:04.721Z,27.3
2022-11-20T07:53:02.392Z,27.5
2022-11-20T07:54:01.018Z,27.5
2022-11-20T07:55:01.215Z,27.7
2022-11-20T07:56:01.831Z,27.5
2022-11-20T07:57:00.922Z,27.5
2022-11-20T07:58:01.235Z,27.5
2022-11-20T07:59:01.226Z,27.7
2022-11-20T08:00:00.933Z,27.9
2022-11-20T08:01:05.906Z,28.0
2022-11-20T08:02:00.901Z,27.9
2022-11-20T08:03:03.443Z,27.7
2022-11-20T08:04:00.913Z,27.9
2022-11-20T08:05:00.946Z,27.7
2022-11-20T08:06:02.045Z,27.7
2022-11-20T08:07:01.006Z,27.7
2022-11-20T08:08:00.921Z,27.9
2022-11-20T08:09:01.236Z,27.9
2022-11-20T08:10:01.287Z,27.9
2022-11-20T08:11:01.286Z,27.9
2022-11-20T08:12:01.519Z,27.9
2022-11-20T08:13:00.903Z,27.9
2022-11-20T08:14:00.970Z,27.9
2022-11-20T08:15:00.985Z,27.9
2022-11-20T08:16:01.350Z,27.9
2022-11-20T08:17:00.929Z,28.2
2022-11-20T08:18:28.917Z,28.0
2022-11-20T08:19:01.207Z,28.2
2022-11-20T08:20:01.232Z,28.4
2022-11-20T08:21:03.153Z,28.4
2022-11-20T08:22:01.244Z,28.6
2022-11-20T08:23:02.468Z,28.6
2022-11-20T08:24:00.929Z,28.2
2022-11-20T08:25:01.101Z,28.2
2022-11-20T08:26:00.924Z,28.2
2022-11-20T08:27:00.921Z,28.4
2022-11-20T08:28:10.295Z,28.2
2022-11-20T08:29:01.251Z,28.0
2022-11-20T08:30:01.221Z,28.2
2022-11-20T08:31:02.832Z,28.4
2022-11-20T08:32:01.236Z,28.4
2022-11-20T08:33:03.480Z,28.4
2022-11-20T08:34:04.925Z,28.4
2022-11-20T08:35:01.231Z,28.4
2022-11-20T08:36:02.052Z,28.8
2022-11-20T08:37:02.044Z,28.8
2022-11-20T08:38:01.306Z,28.6
2022-11-20T08:39:01.270Z,28.8
2022-11-20T08:40:01.223Z,28.6
2022-11-20T08:41:03.543Z,28.6
2022-11-20T08:42:00.911Z,28.8
2022-11-20T08:43:01.225Z,28.8
2022-11-20T08:44:03.111Z,28.6
2022-11-20T08:45:01.169Z,28.6
2022-11-20T08:46:00.947Z,28.6
2022-11-20T08:47:01.438Z,28.4
2022-11-20T08:48:02.012Z,28.2
2022-11-20T08:49:01.053Z,28.4
2022-11-20T08:50:00.932Z,28.6
2022-11-20T08:51:00.968Z,28.4
2022-11-20T08:52:00.947Z,28.4
2022-11-20T08:53:02.867Z,28.4
2022-11-20T08:54:01.461Z,28.4
2022-11-20T08:55:00.949Z,28.4
2022-11-20T08:56:01.681Z,28.4
2022-11-20T08:57:00.925Z,28.4
2022-11-20T08:58:04.435Z,28.4
2022-11-20T08:59:27.063Z,28.4
2022-11-20T09:00:06.524Z,28.4
2022-11-20T09:01:01.586Z,28.4
2022-11-20T09:02:01.241Z,28.4
2022-11-20T09:03:01.940Z,28.4
2022-11-20T09:04:00.946Z,28.4
2022-11-20T09:05:01.229Z,28.4
2022-11-20T09:06:03.703Z,28.4
2022-11-20T09:07:01.465Z,28.6
2022-11-20T09:08:01.246Z,28.6
2022-11-20T09:09:06.331Z,28.6
2022-11-20T09:10:22.633Z,28.6
2022-11-20T09:11:01.238Z,28.6
2022-11-20T09:12:00.911Z,28.8
2022-11-20T09:13:01.354Z,28.8
2022-11-20T09:14:01.237Z,28.8
2022-11-20T09:15:00.906Z,29.1
2022-11-20T09:16:02.923Z,29.5
2022-11-20T09:17:01.284Z,29.5
2022-11-20T09:18:03.110Z,29.5
2022-11-20T09:19:20.663Z,29.5
2022-11-20T09:20:00.935Z,29.5
2022-11-20T09:21:03.950Z,29.3
2022-11-20T09:22:00.911Z,29.8
2022-11-20T09:23:01.233Z,29.8
2022-11-20T09:24:00.942Z,29.8
2022-11-20T09:25:00.931Z,29.8
2022-11-20T09:26:03.457Z,30.2
2022-11-20T09:27:03.903Z,30.0
2022-11-20T09:28:01.227Z,30.0
2022-11-20T09:29:01.081Z,30.2
2022-11-20T09:30:00.941Z,30.2
2022-11-20T09:31:04.680Z,30.0
2022-11-20T09:32:01.237Z,30.0
2022-11-20T09:33:01.329Z,30.0
2022-11-20T09:34:01.233Z,30.0
2022-11-20T09:36:01.429Z,30.0
2022-11-20T09:37:04.518Z,30.0
2022-11-20T09:38:06.084Z,30.2
2022-11-20T09:39:01.090Z,30.0
2022-11-20T09:40:01.227Z,30.2
2022-11-20T09:41:05.174Z,30.0
2022-11-20T09:42:20.396Z,29.8
2022-11-20T09:43:07.317Z,29.8
2022-11-20T09:44:13.475Z,30.0
2022-11-20T09:45:15.704Z,30.0
2022-11-20T09:46:08.063Z,30.0
2022-11-20T09:47:08.295Z,29.8
2022-11-20T09:48:16.563Z,29.8
2022-11-20T09:49:20.487Z,29.7
2022-11-20T09:50:17.334Z,29.5
2022-11-20T09:51:08.878Z,29.5
2022-11-20T09:52:12.966Z,29.5
2022-11-20T09:53:13.714Z,29.7
2022-11-20T09:54:15.119Z,29.5
2022-11-20T09:55:03.904Z,29.3
2022-11-20T09:56:03.052Z,29.5
2022-11-20T09:57:11.706Z,29.5
2022-11-20T09:58:01.243Z,29.5
2022-11-20T09:59:06.676Z,29.7
2022-11-20T10:00:04.249Z,29.7
2022-11-20T10:01:09.760Z,29.8
2022-11-20T10:02:11.831Z,30.0
2022-11-20T10:03:06.331Z,30.2
2022-11-20T10:04:04.824Z,30.4
2022-11-20T10:05:06.418Z,30.6
2022-11-20T10:06:03.858Z,30.6
2022-11-20T10:07:31.884Z,30.7
2022-11-20T10:08:10.857Z,30.6
2022-11-20T10:09:16.101Z,30.7
2022-11-20T10:10:01.315Z,30.9
2022-11-20T10:11:09.488Z,31.1
2022-11-20T10:12:15.686Z,31.1
2022-11-20T10:13:17.494Z,30.9
2022-11-20T10:14:12.464Z,31.1
2022-11-20T10:15:16.513Z,31.1
2022-11-20T10:16:15.007Z,30.9
2022-11-20T10:17:11.995Z,31.1
2022-11-20T10:18:16.811Z,31.1
2022-11-20T10:19:14.697Z,31.5
2022-11-20T10:20:16.351Z,31.3
2022-11-20T10:21:12.323Z,31.5
2022-11-20T10:22:11.716Z,31.3
2022-11-20T10:23:25.431Z,31.3
2022-11-20T10:24:20.393Z,30.9
2022-11-20T10:25:11.316Z,30.9
2022-11-20T10:26:03.617Z,31.1
2022-11-20T10:27:09.234Z,30.9
2022-11-20T10:28:18.234Z,30.7
2022-11-20T10:29:11.417Z,30.9
2022-11-20T10:30:08.139Z,30.9
2022-11-20T10:31:04.605Z,30.7
2022-11-20T10:32:04.466Z,30.9
2022-11-20T10:33:06.808Z,30.9
2022-11-20T10:34:12.164Z,30.7
2022-11-20T10:35:10.091Z,30.7
2022-11-20T10:36:08.207Z,30.7
2022-11-20T10:37:06.950Z,30.9
2022-11-20T10:38:05.686Z,30.9
2022-11-20T10:39:06.942Z,30.7
2022-11-20T10:40:06.007Z,30.7
2022-11-20T10:41:03.176Z,30.9
2022-11-20T10:42:01.517Z,30.7
2022-11-20T10:43:03.353Z,30.6
2022-11-20T10:44:05.126Z,30.7
2022-11-20T10:45:15.806Z,30.7
2022-11-20T10:46:07.068Z,30.6
2022-11-20T10:47:01.397Z,30.6
2022-11-20T10:48:12.721Z,30.9
2022-11-20T10:49:00.931Z,30.9
2022-11-20T10:50:05.567Z,30.9
2022-11-20T10:51:15.854Z,30.9
2022-11-20T10:52:12.850Z,30.9
2022-11-20T10:53:09.244Z,30.9
2022-11-20T10:54:17.867Z,30.9
2022-11-20T10:55:18.374Z,30.9
2022-11-20T10:56:07.809Z,30.7
2022-11-20T10:57:13.478Z,30.7
2022-11-20T10:58:10.452Z,30.7
2022-11-20T10:59:20.697Z,30.7
2022-11-20T11:00:05.591Z,30.6
2022-11-20T11:01:04.805Z,30.6
2022-11-20T11:02:03.323Z,30.6
2022-11-20T11:03:01.378Z,30.7
2022-11-20T11:04:01.554Z,30.7
2022-11-20T11:05:14.263Z,30.9
2022-11-20T11:06:08.240Z,30.7
2022-11-20T11:07:10.486Z,30.7
2022-11-20T11:08:03.436Z,30.7
2022-11-20T11:09:09.119Z,30.6
2022-11-20T11:10:01.328Z,30.6
2022-11-20T11:11:12.008Z,30.6
2022-11-20T11:12:06.799Z,30.6
2022-11-20T11:13:00.930Z,30.7
2022-11-20T11:14:09.943Z,30.7
2022-11-20T11:15:01.257Z,30.6
2022-11-20T11:16:03.154Z,30.6
2022-11-20T11:17:01.223Z,30.6
2022-11-20T11:18:01.256Z,30.7
2022-11-20T11:19:05.376Z,30.6
2022-11-20T11:20:04.995Z,30.7
2022-11-20T11:21:03.710Z,30.7
2022-11-20T11:22:11.511Z,30.6
2022-11-20T11:23:01.237Z,30.6
2022-11-20T11:24:19.862Z,30.6
2022-11-20T11:25:01.476Z,30.6
2022-11-20T11:26:03.582Z,30.4
2022-11-20T11:27:03.646Z,30.6
2022-11-20T11:28:03.485Z,30.4
2022-11-20T11:29:04.365Z,30.4
2022-11-20T11:30:13.277Z,30.2
2022-11-20T11:31:00.942Z,30.0
2022-11-20T11:32:06.657Z,30.0
2022-11-20T11:33:05.595Z,30.0
2022-11-20T11:34:04.591Z,30.4
2022-11-20T11:35:03.520Z,30.4
2022-11-20T11:36:03.694Z,30.0
2022-11-20T11:37:02.700Z,30.4
2022-11-20T11:38:06.222Z,30.2
2022-11-20T11:39:02.709Z,30.2
2022-11-20T11:40:23.467Z,30.0
2022-11-20T11:41:02.659Z,30.4
2022-11-20T11:42:01.902Z,30.4
2022-11-20T11:43:04.574Z,30.4
2022-11-20T11:44:13.837Z,30.4
2022-11-20T11:45:01.232Z,30.4
2022-11-20T11:46:01.122Z,30.4
2022-11-20T11:47:03.212Z,30.6
2022-11-20T11:48:03.922Z,30.6
2022-11-20T11:49:12.087Z,30.6
2022-11-20T11:50:01.720Z,30.4
2022-11-20T11:51:00.957Z,30.6
2022-11-20T11:52:09.031Z,30.7
2022-11-20T11:53:12.644Z,30.4
2022-11-20T11:54:05.457Z,30.6
2022-11-20T11:55:10.214Z,30.6
2022-11-20T11:56:08.907Z,30.7
2022-11-20T11:57:05.936Z,30.7
2022-11-20T11:58:11.408Z,30.6
2022-11-20T11:59:06.895Z,30.7
2022-11-20T12:00:04.827Z,30.6
2022-11-20T12:01:10.497Z,30.6
2022-11-20T12:02:12.467Z,30.6
2022-11-20T12:03:09.310Z,30.6
2022-11-20T12:04:06.097Z,30.4
2022-11-20T12:05:12.743Z,30.6
2022-11-20T12:06:09.165Z,30.6
2022-11-20T12:07:39.276Z,30.6
2022-11-20T12:08:12.134Z,30.7
2022-11-20T12:09:04.743Z,30.9
2022-11-20T12:10:02.521Z,30.6
2022-11-20T12:11:11.736Z,30.7
2022-11-20T12:12:10.580Z,30.6
2022-11-20T12:13:14.295Z,30.6
2022-11-20T12:14:10.315Z,30.4
2022-11-20T12:15:02.638Z,30.6
2022-11-20T12:16:02.792Z,30.6
2022-11-20T12:17:02.322Z,30.7
2022-11-20T12:18:01.214Z,30.7
2022-11-20T12:19:01.360Z,30.7
2022-11-20T12:20:00.930Z,30.7
2022-11-20T12:21:15.893Z,30.9
2022-11-20T12:22:13.808Z,30.9
2022-11-20T12:23:09.865Z,30.9
2022-11-20T12:24:17.065Z,30.9
2022-11-20T12:25:07.986Z,31.1
2022-11-20T12:26:10.496Z,30.9
2022-11-20T12:27:14.345Z,31.1
2022-11-20T12:28:20.402Z,31.1
2022-11-20T12:29:09.331Z,31.1
2022-11-20T12:30:07.443Z,31.3
2022-11-20T12:31:18.454Z,31.3
2022-11-20T12:32:16.976Z,31.3
2022-11-20T12:33:15.749Z,31.3
2022-11-20T12:34:10.767Z,31.3
2022-11-20T12:35:11.722Z,31.3
2022-11-20T12:36:13.029Z,31.3
2022-11-20T12:37:08.908Z,31.3
2022-11-20T12:38:18.463Z,31.5
2022-11-20T12:39:12.106Z,31.5
2022-11-20T12:40:20.416Z,31.5
2022-11-20T12:41:12.834Z,31.5
2022-11-20T12:42:19.097Z,31.5
2022-11-20T12:43:11.973Z,31.5
2022-11-20T12:44:16.501Z,31.6
2022-11-20T12:45:10.413Z,31.8
2022-11-20T12:46:09.143Z,32.0
2022-11-20T12:47:17.356Z,32.0
2022-11-20T12:48:20.407Z,32.4
2022-11-20T12:49:18.321Z,32.4
2022-11-20T12:50:14.669Z,32.5
2022-11-20T12:51:19.154Z,32.9
2022-11-20T12:52:13.631Z,32.9
2022-11-20T12:53:07.284Z,32.9
2022-11-20T12:54:14.525Z,33.1
2022-11-20T12:55:16.262Z,33.3
2022-11-20T12:56:12.164Z,33.3
2022-11-20T12:57:10.082Z,33.4
2022-11-20T12:58:10.873Z,33.6
2022-11-20T12:59:18.418Z,33.4
2022-11-20T13:00:10.010Z,33.3
2022-11-20T13:01:15.154Z,33.1
2022-11-20T13:02:15.342Z,33.1
2022-11-20T13:03:13.531Z,33.3
2022-11-20T13:04:10.544Z,33.3
2022-11-20T13:05:16.260Z,33.4
2022-11-20T13:06:11.084Z,33.4
2022-11-20T13:07:03.869Z,33.4
2022-11-20T13:08:02.533Z,33.3
2022-11-20T13:09:03.174Z,33.3
2022-11-20T13:10:02.776Z,33.4
2022-11-20T13:11:10.146Z,33.6
2022-11-20T13:12:06.703Z,33.4
2022-11-20T13:13:12.042Z,33.6
2022-11-20T13:14:11.521Z,33.4
2022-11-20T13:15:08.898Z,33.4
2022-11-20T13:16:07.129Z,33.6
2022-11-20T13:17:10.235Z,33.4
2022-11-20T13:18:04.143Z,33.4
2022-11-20T13:19:03.937Z,33.4